Athelstane, Wisconsin
Current Conditions -  °F | °C
As of 11:54 PM on Friday 31 Oct 2014 (Local Time) from KIMT Reporting Station
Overcast Overcast  
Wind Chill: 21°   Ceiling: 3100
Heat Index: 30°   Visibility: 10mi
Dew Point: 18°   Wind: 10mph
Humidity: 61%   Direction: 10°N
Pressure: 30.43"   Gusts: NA
Location:  45.42°N, 88.1°W
Report Text: KIMT 010454Z AUTO 01009KT 10SM OVC031 M01/M08 A3043 RMK AO2 SLP321 T10111078
Loading
Personal Weather Stations






























Interactive Weather Map
Tropical Storm Tracking
New forecast layout! Learn more

10-Day Weather Forecast

Advertisements
Track Severe Weather on mobile